createdAt,value
2022-08-28T00:01:01.881Z,78.53
2022-08-28T00:03:30.394Z,77.61
2022-08-28T00:05:57.604Z,78.51
2022-08-28T00:08:24.699Z,79.55
2022-08-28T00:10:52.233Z,78.51
2022-08-28T00:13:22.076Z,77.43
2022-08-28T00:15:55.785Z,75.92
2022-08-28T00:18:23.876Z,76.50
2022-08-28T00:20:51.755Z,77.69
2022-08-28T00:23:19.660Z,81.81
2022-08-28T00:25:46.915Z,79.54
2022-08-28T00:28:23.728Z,78.25
2022-08-28T00:30:55.673Z,80.41
2022-08-28T00:33:24.153Z,80.33
2022-08-28T00:35:51.952Z,79.32
2022-08-28T00:38:21.715Z,79.57
2022-08-28T00:40:52.639Z,80.47
2022-08-28T00:43:41.613Z,79.69
2022-08-28T00:46:20.072Z,79.87
2022-08-28T00:48:48.095Z,79.64
2022-08-28T00:51:37.155Z,80.56
2022-08-28T00:54:07.752Z,80.51
2022-08-28T00:56:38.468Z,79.53
2022-08-28T00:59:11.755Z,76.08
2022-08-28T01:01:39.225Z,77.76
2022-08-28T01:04:06.716Z,77.25
2022-08-28T01:06:35.841Z,79.66
2022-08-28T01:09:03.660Z,80.66
2022-08-28T01:11:32.639Z,79.91
2022-08-28T01:14:03.169Z,78.64
2022-08-28T01:16:33.818Z,77.07
2022-08-28T01:19:02.269Z,76.99
2022-08-28T01:21:58.764Z,77.58
2022-08-28T01:24:26.634Z,78.61
2022-08-28T01:26:53.607Z,76.00
2022-08-28T01:29:20.938Z,76.22
2022-08-28T01:34:30.244Z,80.16
2022-08-28T01:36:58.540Z,79.82
2022-08-28T01:39:28.534Z,81.48
2022-08-28T01:41:57.068Z,83.03
2022-08-28T01:44:28.231Z,82.00
2022-08-28T01:46:58.870Z,80.92
2022-08-28T01:49:30.006Z,79.18
2022-08-28T01:51:58.028Z,77.48
2022-08-28T01:54:27.127Z,75.85
2022-08-28T01:56:55.130Z,77.70
2022-08-28T01:59:22.583Z,77.65
2022-08-28T02:01:49.764Z,75.91
2022-08-28T02:04:16.922Z,76.44
2022-08-28T02:06:44.187Z,78.60
2022-08-28T02:09:14.508Z,79.98
2022-08-28T02:11:46.493Z,79.33
2022-08-28T02:14:14.323Z,78.11
2022-08-28T02:16:41.255Z,77.64
2022-08-28T02:19:08.333Z,77.50
2022-08-28T02:21:35.741Z,78.96
2022-08-28T02:24:03.254Z,79.42
2022-08-28T02:26:31.718Z,79.11
2022-08-28T02:28:59.390Z,81.45
2022-08-28T02:31:28.146Z,78.96
2022-08-28T02:33:55.914Z,79.39
2022-08-28T02:36:24.153Z,79.79
2022-08-28T02:38:57.399Z,80.17
2022-08-28T02:41:25.898Z,80.36
2022-08-28T02:43:53.269Z,80.23
2022-08-28T02:46:20.585Z,80.16
2022-08-28T02:48:47.677Z,81.12
2022-08-28T02:51:15.320Z,80.58
2022-08-28T02:53:42.950Z,79.11
2022-08-28T02:56:10.769Z,79.79
2022-08-28T02:58:39.352Z,78.68
2022-08-28T03:01:10.017Z,76.68
2022-08-28T03:03:38.099Z,76.65
2022-08-28T03:06:12.537Z,76.68
2022-08-28T03:08:42.092Z,80.44
2022-08-28T03:11:10.111Z,79.70
2022-08-28T03:13:37.096Z,80.07
2022-08-28T03:16:05.225Z,77.52
2022-08-28T03:18:33.225Z,75.83
2022-08-28T03:21:00.928Z,76.75
2022-08-28T03:23:28.230Z,76.00
2022-08-28T03:26:12.458Z,74.47
2022-08-28T03:28:48.734Z,75.75
2022-08-28T03:31:22.205Z,76.82
2022-08-28T03:33:50.265Z,78.29
2022-08-28T03:36:23.868Z,78.54
2022-08-28T03:38:53.302Z,80.83
2022-08-28T03:41:23.485Z,82.38
2022-08-28T03:43:51.655Z,83.75
2022-08-28T03:46:23.810Z,81.08
2022-08-28T03:48:53.210Z,80.22
2022-08-28T03:51:29.376Z,78.66
2022-08-28T03:54:01.845Z,78.80
2022-08-28T03:56:30.696Z,84.09
2022-08-28T03:59:01.747Z,79.80
2022-08-28T04:01:28.833Z,79.63
2022-08-28T04:03:57.215Z,79.05
2022-08-28T04:06:24.659Z,81.29
2022-08-28T04:08:51.803Z,81.38
2022-08-28T04:11:19.023Z,83.05
2022-08-28T04:13:46.010Z,83.29
2022-08-28T04:16:17.642Z,83.43
2022-08-28T04:18:47.740Z,81.51
2022-08-28T04:21:19.590Z,82.25
2022-08-28T04:23:47.739Z,82.06
2022-08-28T04:26:19.041Z,82.94
2022-08-28T04:28:47.308Z,83.39
2022-08-28T04:31:15.264Z,82.08
2022-08-28T04:33:42.731Z,80.03
2022-08-28T04:36:14.117Z,80.22
2022-08-28T04:38:44.056Z,79.73
2022-08-28T04:41:14.979Z,81.34
2022-08-28T04:43:43.030Z,80.26
2022-08-28T04:46:15.126Z,83.13
2022-08-28T04:48:43.236Z,83.33
2022-08-28T04:51:14.399Z,79.52
2022-08-28T04:53:42.581Z,79.51
2022-08-28T04:56:13.637Z,79.82
2022-08-28T04:58:43.345Z,79.27
2022-08-28T05:01:20.403Z,80.32
2022-08-28T05:03:52.751Z,81.98
2022-08-28T05:06:21.619Z,79.51
2022-08-28T05:08:48.849Z,81.63
2022-08-28T05:11:33.240Z,84.33
2022-08-28T05:14:05.007Z,82.74
2022-08-28T05:16:34.679Z,83.17
2022-08-28T05:19:03.559Z,84.94
2022-08-28T05:21:30.640Z,83.39
2022-08-28T05:23:58.371Z,85.18
2022-08-28T05:26:26.827Z,83.87
2022-08-28T05:28:56.256Z,83.96
2022-08-28T05:31:25.924Z,84.12
2022-08-28T05:33:53.547Z,80.63
2022-08-28T05:36:25.894Z,79.78
2022-08-28T05:39:00.042Z,80.34
2022-08-28T05:41:32.905Z,78.80
2022-08-28T05:44:03.721Z,79.89
2022-08-28T05:46:31.071Z,80.86
2022-08-28T05:49:00.532Z,80.80
2022-08-28T05:51:28.813Z,78.79
2022-08-28T05:53:57.739Z,77.80
2022-08-28T05:56:32.853Z,78.68
2022-08-28T05:59:01.922Z,78.57
2022-08-28T06:01:32.056Z,80.33
2022-08-28T06:04:18.002Z,81.96
2022-08-28T06:06:46.169Z,81.91
2022-08-28T06:09:29.359Z,79.69
2022-08-28T06:11:59.882Z,80.10
2022-08-28T06:14:27.422Z,79.47
2022-08-28T06:16:56.334Z,81.34
2022-08-28T06:19:26.346Z,80.76
2022-08-28T06:22:00.895Z,80.81
2022-08-28T06:24:29.171Z,80.37
2022-08-28T06:26:58.739Z,79.07
2022-08-28T06:29:27.353Z,78.59
2022-08-28T06:31:58.925Z,78.74
2022-08-28T06:34:26.989Z,79.24
2022-08-28T06:36:54.702Z,80.30
2022-08-28T06:39:23.171Z,80.35
2022-08-28T06:41:50.321Z,81.48
2022-08-28T06:44:20.197Z,82.09
2022-08-28T06:46:50.588Z,82.55
2022-08-28T06:49:17.889Z,80.04
2022-08-28T06:51:45.086Z,80.49
2022-08-28T06:54:12.069Z,80.42
2022-08-28T06:56:39.297Z,79.39
2022-08-28T06:59:06.424Z,81.23
2022-08-28T07:01:37.065Z,81.40
2022-08-28T07:04:09.846Z,78.33
2022-08-28T07:06:40.497Z,78.52
2022-08-28T07:09:13.625Z,78.07
2022-08-28T07:11:41.052Z,77.59
2022-08-28T07:14:08.367Z,78.87
2022-08-28T07:16:39.050Z,80.15
2022-08-28T07:19:12.110Z,79.45
2022-08-28T07:21:43.404Z,79.24
2022-08-28T07:24:14.844Z,79.38
2022-08-28T07:26:43.748Z,79.95
2022-08-28T07:29:12.840Z,78.60
2022-08-28T07:31:48.389Z,78.72
2022-08-28T07:34:18.649Z,78.87
2022-08-28T07:36:45.986Z,78.24
2022-08-28T07:39:15.365Z,77.09
2022-08-28T07:41:43.196Z,80.94
2022-08-28T07:44:32.092Z,77.91
2022-08-28T07:47:04.098Z,78.14
2022-08-28T07:49:34.497Z,77.85
2022-08-28T07:52:02.594Z,77.44
2022-08-28T07:54:29.546Z,75.55
2022-08-28T07:56:56.815Z,75.33
2022-08-28T07:59:23.837Z,73.01
2022-08-28T08:01:51.953Z,77.02
2022-08-28T08:04:20.934Z,75.13
2022-08-28T08:06:48.615Z,73.74
2022-08-28T08:09:19.708Z,73.35
2022-08-28T08:11:49.706Z,76.28
2022-08-28T08:14:17.250Z,76.48
2022-08-28T08:16:46.615Z,75.61
2022-08-28T08:19:14.319Z,75.33
2022-08-28T08:21:48.353Z,74.65
2022-08-28T08:24:26.276Z,74.33
2022-08-28T08:27:00.140Z,77.20
2022-08-28T08:29:31.687Z,75.67
2022-08-28T08:32:06.039Z,73.05
2022-08-28T08:34:36.536Z,71.72
2022-08-28T08:37:05.664Z,70.89
2022-08-28T08:39:34.814Z,74.94
2022-08-28T08:42:07.552Z,74.33
2022-08-28T08:44:41.357Z,74.18
2022-08-28T08:47:23.202Z,73.73
2022-08-28T08:50:21.711Z,73.26
2022-08-28T08:53:21.938Z,71.50
2022-08-28T08:55:56.851Z,71.86
2022-08-28T08:58:48.857Z,70.24
2022-08-28T09:01:39.210Z,72.12
2022-08-28T09:04:46.958Z,71.90
2022-08-28T09:07:34.251Z,73.43
2022-08-28T09:10:01.402Z,69.91
2022-08-28T09:12:33.230Z,70.49
2022-08-28T09:15:05.867Z,72.30
2022-08-28T09:17:42.445Z,69.05
2022-08-28T09:20:17.013Z,68.08
2022-08-28T09:22:48.116Z,69.03
2022-08-28T09:25:44.284Z,70.87
2022-08-28T09:28:28.220Z,71.18
2022-08-28T09:31:20.015Z,70.32
2022-08-28T09:33:52.178Z,69.27
2022-08-28T09:36:38.608Z,67.39
2022-08-28T09:39:17.419Z,67.35
2022-08-28T09:42:24.708Z,65.18
2022-08-28T09:45:09.082Z,65.03
2022-08-28T09:47:48.734Z,67.01
2022-08-28T09:50:31.398Z,66.34
2022-08-28T09:53:11.450Z,65.29
2022-08-28T09:56:17.623Z,65.41
2022-08-28T09:58:54.743Z,65.75
2022-08-28T10:01:47.424Z,65.77
2022-08-28T10:05:06.643Z,64.14
2022-08-28T10:07:58.376Z,63.41
2022-08-28T10:10:41.453Z,65.03
2022-08-28T10:13:19.297Z,62.54
2022-08-28T10:16:22.194Z,63.95
2022-08-28T10:19:11.941Z,62.59
2022-08-28T10:22:01.763Z,62.64
2022-08-28T10:25:10.857Z,62.88
2022-08-28T10:28:53.932Z,62.18
2022-08-28T10:31:59.380Z,61.99
2022-08-28T10:34:58.961Z,61.11
2022-08-28T10:38:05.797Z,62.70
2022-08-28T10:40:43.068Z,59.34
2022-08-28T10:43:37.463Z,62.00
2022-08-28T10:46:12.455Z,62.81
2022-08-28T10:49:03.524Z,61.97
2022-08-28T10:51:51.761Z,62.07
2022-08-28T10:54:33.437Z,60.50
2022-08-28T10:57:31.013Z,63.58
2022-08-28T11:00:04.333Z,61.47
2022-08-28T11:02:33.066Z,61.07
2022-08-28T11:05:00.451Z,59.28
2022-08-28T11:07:41.746Z,61.19
2022-08-28T11:10:32.192Z,61.48
2022-08-28T11:13:00.030Z,60.59
2022-08-28T11:15:37.218Z,58.69
2022-08-28T11:18:17.719Z,56.29
2022-08-28T11:21:26.390Z,56.80
2022-08-28T11:24:05.903Z,57.54
2022-08-28T11:27:02.561Z,57.14
2022-08-28T11:30:04.077Z,54.26
2022-08-28T11:32:33.979Z,57.44
2022-08-28T11:35:13.045Z,58.38
2022-08-28T11:37:49.673Z,57.41
2022-08-28T11:40:40.755Z,54.60
2022-08-28T11:43:16.963Z,54.93
2022-08-28T11:45:45.692Z,54.53
2022-08-28T11:48:23.123Z,56.55
2022-08-28T11:51:04.225Z,55.48
2022-08-28T11:54:11.943Z,55.21
2022-08-28T11:57:08.354Z,57.50
2022-08-28T12:00:01.860Z,57.18
2022-08-28T12:02:40.560Z,56.84
2022-08-28T12:05:32.586Z,57.48
2022-08-28T12:08:05.080Z,56.68
2022-08-28T12:10:32.324Z,55.45
2022-08-28T12:13:02.527Z,55.66
2022-08-28T12:15:32.347Z,54.42
2022-08-28T12:18:11.890Z,54.41
2022-08-28T12:20:51.474Z,53.62
2022-08-28T12:23:41.657Z,53.39
2022-08-28T12:26:30.129Z,54.63
2022-08-28T12:29:30.819Z,53.64
2022-08-28T12:32:44.091Z,54.21
2022-08-28T12:35:29.802Z,52.83
2022-08-28T12:38:05.095Z,52.17
2022-08-28T12:40:41.574Z,53.53
2022-08-28T12:43:15.309Z,55.27
2022-08-28T12:46:02.904Z,53.97
2022-08-28T12:48:35.103Z,54.15
2022-08-28T12:51:15.166Z,53.38
2022-08-28T12:53:50.261Z,52.73
2022-08-28T12:56:21.445Z,52.51
2022-08-28T12:58:49.501Z,51.57
2022-08-28T13:01:29.686Z,50.22
2022-08-28T13:04:01.383Z,49.97
2022-08-28T13:06:34.495Z,51.36
2022-08-28T13:09:18.890Z,52.82
2022-08-28T13:11:51.388Z,52.32
2022-08-28T13:14:47.114Z,50.70
2022-08-28T13:17:35.615Z,51.68
2022-08-28T13:20:07.544Z,52.08
2022-08-28T13:22:41.618Z,51.39
2022-08-28T13:25:37.432Z,51.60
2022-08-28T13:28:17.695Z,51.17
2022-08-28T13:30:59.870Z,50.60
2022-08-28T13:33:27.337Z,50.07
2022-08-28T13:35:55.153Z,49.93
2022-08-28T13:38:25.065Z,49.24
2022-08-28T13:41:00.185Z,50.47
2022-08-28T13:43:46.941Z,48.04
2022-08-28T13:46:14.390Z,50.89
2022-08-28T13:48:41.365Z,49.16
2022-08-28T13:51:20.941Z,48.71
2022-08-28T13:53:50.436Z,50.12
2022-08-28T13:56:19.696Z,47.56
2022-08-28T13:58:57.489Z,48.06
2022-08-28T14:01:49.142Z,48.91
2022-08-28T14:04:16.447Z,48.81
2022-08-28T14:06:44.392Z,49.77
2022-08-28T14:09:17.571Z,49.89
2022-08-28T14:11:47.154Z,49.19
2022-08-28T14:14:14.822Z,49.31
2022-08-28T14:16:42.698Z,48.50
2022-08-28T14:19:09.855Z,48.06
2022-08-28T14:21:40.669Z,47.83
2022-08-28T14:24:08.629Z,47.76
2022-08-28T14:26:36.532Z,47.09
2022-08-28T14:29:06.838Z,47.45
2022-08-28T14:31:40.816Z,47.57
2022-08-28T14:34:12.624Z,49.09
2022-08-28T14:36:41.434Z,48.32
2022-08-28T14:39:11.547Z,48.36
2022-08-28T14:41:46.774Z,49.52
2022-08-28T14:44:14.930Z,49.78
2022-08-28T14:46:45.510Z,48.61
2022-08-28T14:49:16.691Z,48.03
2022-08-28T14:51:45.724Z,47.16
2022-08-28T14:54:16.166Z,46.91
2022-08-28T14:56:46.029Z,47.10
2022-08-28T14:59:24.046Z,46.95
2022-08-28T15:01:56.035Z,48.76
2022-08-28T15:04:24.933Z,47.41
2022-08-28T15:06:58.529Z,45.90
2022-08-28T15:09:26.536Z,46.38
2022-08-28T15:11:54.348Z,47.46
2022-08-28T15:14:21.503Z,47.53
2022-08-28T15:16:49.336Z,46.13
2022-08-28T15:19:18.142Z,48.01
2022-08-28T15:21:52.336Z,46.05
2022-08-28T15:24:23.474Z,45.68
2022-08-28T15:26:50.752Z,46.12
2022-08-28T15:29:18.109Z,47.09
2022-08-28T15:31:49.274Z,48.16
2022-08-28T15:34:21.264Z,47.54
2022-08-28T15:36:55.555Z,47.75
2022-08-28T15:39:44.194Z,48.53
2022-08-28T15:42:11.690Z,48.40
2022-08-28T15:44:39.164Z,48.36
2022-08-28T15:47:07.301Z,47.74
2022-08-28T15:49:41.527Z,49.25
2022-08-28T15:52:14.371Z,48.89
2022-08-28T15:54:41.950Z,48.88
2022-08-28T15:57:09.799Z,49.25
2022-08-28T15:59:48.973Z,48.97
2022-08-28T16:02:20.948Z,47.88
2022-08-28T16:04:48.803Z,47.68
2022-08-28T16:07:17.289Z,47.69
2022-08-28T16:09:44.839Z,47.40
2022-08-28T16:12:12.279Z,46.92
2022-08-28T16:14:39.369Z,48.73
2022-08-28T16:17:10.784Z,48.86
2022-08-28T16:19:42.699Z,48.78
2022-08-28T16:22:11.035Z,50.00
2022-08-28T16:24:38.944Z,48.79
2022-08-28T16:27:08.672Z,49.69
2022-08-28T16:29:39.688Z,49.97
2022-08-28T16:32:06.903Z,49.96
2022-08-28T16:34:34.866Z,49.81
2022-08-28T16:37:04.245Z,49.49
2022-08-28T16:39:31.675Z,48.95
2022-08-28T16:41:58.708Z,49.13
2022-08-28T16:44:26.789Z,49.79
2022-08-28T16:46:55.782Z,48.37
2022-08-28T16:49:23.974Z,48.22
2022-08-28T16:51:51.509Z,48.20
2022-08-28T16:54:18.683Z,48.87
2022-08-28T16:56:46.020Z,50.46
2022-08-28T16:59:16.514Z,50.18
2022-08-28T17:01:44.766Z,50.39
2022-08-28T17:04:12.247Z,51.20
2022-08-28T17:06:40.202Z,51.42
2022-08-28T17:09:07.224Z,52.02
2022-08-28T17:11:34.474Z,52.61
2022-08-28T17:14:02.074Z,51.06
2022-08-28T17:16:31.501Z,52.87
2022-08-28T17:18:59.584Z,51.63
2022-08-28T17:21:45.545Z,52.44
2022-08-28T17:24:13.020Z,52.69
2022-08-28T17:26:41.105Z,52.75
2022-08-28T17:29:08.711Z,52.26
2022-08-28T17:31:37.687Z,53.30
2022-08-28T17:34:07.177Z,53.81
2022-08-28T17:36:38.339Z,54.29
2022-08-28T17:39:09.931Z,52.72
2022-08-28T17:41:38.100Z,53.17
2022-08-28T17:44:06.227Z,53.70
2022-08-28T17:46:37.732Z,53.97
2022-08-28T17:49:07.637Z,54.31
2022-08-28T17:51:43.528Z,53.91
2022-08-28T17:54:14.720Z,54.46
2022-08-28T17:56:42.285Z,55.04
2022-08-28T17:59:11.604Z,54.60
2022-08-28T18:01:38.901Z,55.55
2022-08-28T18:04:06.443Z,55.71
2022-08-28T18:06:34.498Z,56.31
2022-08-28T18:09:01.649Z,56.24
2022-08-28T18:11:29.317Z,56.89
2022-08-28T18:13:56.370Z,56.98
2022-08-28T18:16:27.621Z,57.45
2022-08-28T18:18:57.805Z,58.00
2022-08-28T18:21:24.860Z,58.71
2022-08-28T18:23:51.957Z,58.85
2022-08-28T18:26:19.145Z,58.85
2022-08-28T18:28:46.698Z,59.58
2022-08-28T18:31:14.205Z,59.01
2022-08-28T18:33:41.204Z,60.54
2022-08-28T18:36:11.487Z,60.22
2022-08-28T18:38:40.259Z,61.11
2022-08-28T18:41:08.626Z,60.16
2022-08-28T18:43:36.876Z,61.41
2022-08-28T18:46:07.392Z,61.63
2022-08-28T18:48:36.779Z,62.30
2022-08-28T18:51:07.793Z,61.81
2022-08-28T18:53:36.136Z,62.17
2022-08-28T18:56:03.955Z,61.03
2022-08-28T18:58:32.442Z,61.50
2022-08-28T19:01:01.491Z,61.90
2022-08-28T19:03:29.735Z,62.59
2022-08-28T19:05:57.304Z,63.73
2022-08-28T19:08:25.936Z,62.99
2022-08-28T19:10:54.294Z,63.40
2022-08-28T19:13:22.491Z,62.55
2022-08-28T19:15:52.579Z,63.78
2022-08-28T19:18:20.314Z,63.05
2022-08-28T19:20:48.721Z,63.99
2022-08-28T19:23:17.840Z,64.40
2022-08-28T19:25:45.624Z,62.95
2022-08-28T19:28:12.820Z,60.29
2022-08-28T19:30:40.430Z,61.92
2022-08-28T19:33:08.656Z,63.52
2022-08-28T19:35:35.825Z,63.44
2022-08-28T19:38:03.018Z,63.67
2022-08-28T19:40:30.084Z,63.98
2022-08-28T19:42:57.402Z,62.71
2022-08-28T19:45:24.497Z,63.80
2022-08-28T19:47:52.305Z,62.61
2022-08-28T19:50:19.944Z,63.55
2022-08-28T19:52:46.993Z,64.04
2022-08-28T19:55:25.903Z,63.88
2022-08-28T19:57:53.822Z,64.05
2022-08-28T20:00:25.597Z,65.20
2022-08-28T20:02:52.823Z,67.14
2022-08-28T20:05:21.977Z,65.84
2022-08-28T20:07:49.265Z,67.30
2022-08-28T20:10:17.777Z,66.13
2022-08-28T20:12:48.683Z,65.59
2022-08-28T20:15:19.394Z,66.65
2022-08-28T20:17:49.571Z,67.25
2022-08-28T20:20:24.582Z,69.19
2022-08-28T20:22:54.409Z,69.10
2022-08-28T20:25:21.946Z,69.39
2022-08-28T20:27:49.205Z,69.07
2022-08-28T20:30:17.970Z,66.66
2022-08-28T20:32:45.128Z,67.52
2022-08-28T20:35:13.621Z,67.21
2022-08-28T20:37:45.485Z,67.88
2022-08-28T20:40:19.593Z,68.88
2022-08-28T20:42:48.733Z,69.29
2022-08-28T20:45:18.009Z,67.88
2022-08-28T20:47:45.614Z,67.72
2022-08-28T20:50:14.029Z,69.33
2022-08-28T20:52:41.715Z,70.15
2022-08-28T20:55:10.225Z,70.14
2022-08-28T20:57:37.562Z,69.11
2022-08-28T21:00:08.687Z,69.58
2022-08-28T21:02:36.592Z,68.81
2022-08-28T21:05:05.485Z,70.31
2022-08-28T21:07:34.173Z,70.79
2022-08-28T21:10:07.073Z,71.22
2022-08-28T21:12:39.655Z,67.71
2022-08-28T21:15:10.232Z,70.27
2022-08-28T21:17:37.325Z,71.58
2022-08-28T21:20:14.030Z,70.77
2022-08-28T21:22:42.390Z,70.39
2022-08-28T21:25:10.973Z,69.99
2022-08-28T21:27:39.130Z,70.74
2022-08-28T21:30:08.442Z,71.93
2022-08-28T21:32:36.705Z,71.44
2022-08-28T21:35:08.584Z,72.30
2022-08-28T21:37:36.327Z,73.66
2022-08-28T21:40:07.946Z,71.82
2022-08-28T21:42:35.738Z,71.61
2022-08-28T21:45:07.259Z,70.20
2022-08-28T21:47:38.145Z,71.12
2022-08-28T21:50:06.543Z,72.46
2022-08-28T21:52:34.530Z,72.13
2022-08-28T21:55:07.145Z,72.83
2022-08-28T21:57:34.772Z,73.43
2022-08-28T22:00:04.295Z,73.83
2022-08-28T22:02:33.374Z,74.53
2022-08-28T22:05:00.720Z,72.51
2022-08-28T22:07:28.108Z,69.75
2022-08-28T22:09:55.748Z,68.57
2022-08-28T22:12:22.840Z,70.30
2022-08-28T22:14:49.844Z,70.76
2022-08-28T22:17:16.866Z,72.29
2022-08-28T22:19:46.694Z,71.13
2022-08-28T22:22:33.793Z,73.37
2022-08-28T22:25:01.087Z,75.64
2022-08-28T22:27:28.387Z,74.24
2022-08-28T22:29:56.267Z,75.06
2022-08-28T22:32:25.729Z,69.56
2022-08-28T22:34:54.768Z,73.58
2022-08-28T22:37:22.962Z,74.74
2022-08-28T22:39:50.363Z,73.57
2022-08-28T22:42:17.632Z,74.49
2022-08-28T22:44:44.679Z,75.55
2022-08-28T22:47:11.808Z,76.83
2022-08-28T22:49:39.827Z,76.09
2022-08-28T22:52:10.601Z,75.64
2022-08-28T22:54:38.107Z,74.38
2022-08-28T22:57:05.829Z,72.45
2022-08-28T22:59:34.675Z,73.65
2022-08-28T23:02:03.637Z,73.31
2022-08-28T23:04:31.216Z,74.08
2022-08-28T23:06:58.384Z,74.73
2022-08-28T23:09:25.612Z,74.85
2022-08-28T23:11:52.572Z,74.05
2022-08-28T23:14:19.591Z,76.77
2022-08-28T23:16:46.648Z,73.94
2022-08-28T23:19:14.122Z,74.33
2022-08-28T23:21:44.177Z,75.63
2022-08-28T23:24:18.813Z,74.61
2022-08-28T23:26:46.247Z,71.91
2022-08-28T23:29:14.788Z,71.69
2022-08-28T23:31:41.907Z,72.80
2022-08-28T23:34:09.600Z,72.14
2022-08-28T23:36:39.514Z,74.62
2022-08-28T23:39:10.237Z,76.74
2022-08-28T23:41:37.615Z,77.29
2022-08-28T23:44:08.808Z,76.92
2022-08-28T23:46:36.682Z,73.53
2022-08-28T23:49:08.698Z,71.93
2022-08-28T23:51:35.800Z,76.07
2022-08-28T23:54:02.893Z,72.92
2022-08-28T23:58:58.026Z,74.24
